Time;durP1;ratioP1;P1;durP2;ratioP2;P2;SDS_P1;SDS_P2;PMS_P1;PMS_P2;Temp;Humidity;BMP_temperature;BMP_pressure;BME280_temperature;BME280_humidity;BME280_pressure;Samples;Min_cycle;Max_cycle;Signal;HPM_P1;HPM_P2
2022/02/13 00:00:11;;;;;;;3.28;2.97;;;;;;;;;;6155838;23;20048;-82
2022/02/13 00:02:43;;;;;;;2.67;2.47;;;;;;;;;;6127113;23;20025;-82
2022/02/13 00:05:11;;;;;;;4.18;3.80;;;;;;;;;;6152343;23;20032;-83
2022/02/13 00:07:40;;;;;;;4.55;3.80;;;;;;;;;;6184320;23;20020;-83
2022/02/13 00:10:11;;;;;;;4.18;3.70;;;;;;;;;;6177639;23;20017;-82
2022/02/13 00:12:39;;;;;;;5.60;3.38;;;;;;;;;;6180427;23;20689;-83
2022/02/13 00:15:09;;;;;;;5.18;3.42;;;;;;;;;;6185863;23;20352;-82
2022/02/13 00:17:40;;;;;;;4.93;3.75;;;;;;;;;;6161763;23;20017;-82
2022/02/13 00:20:22;;;;;;;4.25;3.78;;;;;;;;;;6113580;23;20033;-82
2022/02/13 00:22:52;;;;;;;4.55;4.15;;;;;;;;;;6184801;23;20346;-82
2022/02/13 00:25:21;;;;;;;4.07;3.58;;;;;;;;;;6151114;23;20717;-82
2022/02/13 00:27:49;;;;;;;7.82;3.60;;;;;;;;;;6157875;23;20348;-82
2022/02/13 00:30:17;;;;;;;3.00;2.90;;;;;;;;;;6186683;23;20017;-82
2022/02/13 00:32:48;;;;;;;4.28;2.70;;;;;;;;;;6179765;23;20035;-82
2022/02/13 00:35:21;;;;;;;5.65;3.33;;;;;;;;;;6126570;23;20028;-82
2022/02/13 00:37:49;;;;;;;4.22;2.58;;;;;;;;;;6121983;23;20078;-82
2022/02/13 00:40:18;;;;;;;2.65;2.40;;;;;;;;;;6111607;23;20072;-82
2022/02/13 00:42:46;;;;;;;3.65;2.78;;;;;;;;;;6156334;23;20635;-82
2022/02/13 00:45:15;;;;;;;5.35;3.42;;;;;;;;;;6177516;23;20378;-83
2022/02/13 00:47:43;;;;;;;4.55;2.97;;;;;;;;;;6184480;23;20032;-82
2022/02/13 00:50:12;;;;;;;3.25;2.75;;;;;;;;;;6176991;23;20028;-82
2022/02/13 00:52:40;;;;;;;3.05;2.75;;;;;;;;;;6126129;23;20040;-82
2022/02/13 00:55:08;;;;;;;4.55;2.20;;;;;;;;;;6125588;23;20024;-82
2022/02/13 00:57:37;;;;;;;2.15;1.98;;;;;;;;;;6187356;23;20017;-82
2022/02/13 01:00:05;;;;;;;2.67;2.08;;;;;;;;;;6155634;23;20529;-82
2022/02/13 01:02:33;;;;;;;4.63;2.70;;;;;;;;;;6126344;23;20024;-82
2022/02/13 01:05:03;;;;;;;3.63;2.90;;;;;;;;;;6152202;23;20021;-82
2022/02/13 01:07:32;;;;;;;2.83;2.63;;;;;;;;;;6185233;23;20017;-82
2022/02/13 01:10:02;;;;;;;6.13;4.45;;;;;;;;;;6174900;23;20020;-82
2022/02/13 01:12:30;;;;;;;5.45;2.67;;;;;;;;;;6180854;23;20725;-82
2022/02/13 01:14:58;;;;;;;3.42;3.13;;;;;;;;;;6125584;23;20027;-82
2022/02/13 01:17:27;;;;;;;3.40;2.80;;;;;;;;;;6124849;23;20495;-82
2022/02/13 01:19:56;;;;;;;2.35;2.25;;;;;;;;;;6125980;23;20037;-82
2022/02/13 01:22:24;;;;;;;3.00;2.80;;;;;;;;;;6187544;23;20013;-82
2022/02/13 01:24:52;;;;;;;4.18;3.08;;;;;;;;;;6152165;23;20025;-82
2022/02/13 01:27:21;;;;;;;2.42;2.22;;;;;;;;;;6150637;23;20700;-82
2022/02/13 01:29:49;;;;;;;3.47;3.17;;;;;;;;;;6186157;23;20013;-82
2022/02/13 01:32:18;;;;;;;4.10;2.38;;;;;;;;;;6125247;23;20036;-82
2022/02/13 01:34:47;;;;;;;4.45;2.63;;;;;;;;;;6155766;23;20022;-82
2022/02/13 01:37:15;;;;;;;4.43;3.00;;;;;;;;;;6126250;23;20036;-83
2022/02/13 01:39:47;;;;;;;3.03;2.70;;;;;;;;;;6183315;23;20021;-82
2022/02/13 01:42:15;;;;;;;2.30;2.17;;;;;;;;;;6188626;23;20020;-82
2022/02/13 01:44:43;;;;;;;2.60;2.50;;;;;;;;;;6181033;23;20025;-82
2022/02/13 01:47:11;;;;;;;2.97;2.78;;;;;;;;;;6127488;23;20408;-82
2022/02/13 01:49:39;;;;;;;3.03;2.83;;;;;;;;;;6128078;23;20044;-82
2022/02/13 01:52:09;;;;;;;2.40;2.30;;;;;;;;;;6157549;23;20025;-82
2022/02/13 01:54:39;;;;;;;5.78;2.60;;;;;;;;;;6189316;23;20021;-82
2022/02/13 01:57:11;;;;;;;3.45;3.15;;;;;;;;;;6153314;23;20044;-82
2022/02/13 01:59:40;;;;;;;2.60;2.40;;;;;;;;;;6118692;23;20025;-82
2022/02/13 02:02:08;;;;;;;2.65;2.55;;;;;;;;;;6128332;23;20024;-82
2022/02/13 02:04:38;;;;;;;3.05;2.55;;;;;;;;;;6156091;23;20021;-82
2022/02/13 02:07:10;;;;;;;5.47;3.55;;;;;;;;;;6152178;23;20028;-82
2022/02/13 02:09:47;;;;;;;3.03;2.83;;;;;;;;;;6178754;23;20017;-82
2022/02/13 02:12:15;;;;;;;4.40;4.05;;;;;;;;;;6183385;23;20160;-82
2022/02/13 02:14:43;;;;;;;2.42;2.30;;;;;;;;;;6188459;23;20017;-82
2022/02/13 02:17:12;;;;;;;3.88;2.75;;;;;;;;;;6179763;23;20029;-83
2022/02/13 02:19:40;;;;;;;3.95;3.65;;;;;;;;;;6185043;23;20017;-82
2022/02/13 02:22:11;;;;;;;3.40;3.10;;;;;;;;;;6189054;23;20069;-83
2022/02/13 02:24:43;;;;;;;3.25;2.97;;;;;;;;;;6181223;23;20356;-82
2022/02/13 02:27:12;;;;;;;2.33;2.22;;;;;;;;;;6187660;23;20020;-83
2022/02/13 02:29:41;;;;;;;2.58;2.25;;;;;;;;;;6178163;23;20028;-82
2022/02/13 02:32:11;;;;;;;3.15;2.40;;;;;;;;;;6157425;23;20025;-82
2022/02/13 02:34:45;;;;;;;2.72;2.53;;;;;;;;;;6178882;23;20013;-83
2022/02/13 02:37:13;;;;;;;3.20;3.00;;;;;;;;;;6179364;23;20444;-83
2022/02/13 02:39:44;;;;;;;4.50;2.33;;;;;;;;;;6185287;23;20025;-82
2022/02/13 02:42:16;;;;;;;3.55;2.58;;;;;;;;;;6178689;23;20028;-83
2022/02/13 02:44:45;;;;;;;2.10;2.00;;;;;;;;;;6180623;23;20674;-82
2022/02/13 02:47:13;;;;;;;3.15;2.95;;;;;;;;;;6188040;23;20017;-82
2022/02/13 02:49:43;;;;;;;3.85;2.00;;;;;;;;;;6181632;23;20036;-83
2022/02/13 02:52:12;;;;;;;6.75;2.60;;;;;;;;;;6178114;23;20028;-83
2022/02/13 02:54:40;;;;;;;2.60;2.40;;;;;;;;;;6161963;23;20013;-80
2022/02/13 02:57:09;;;;;;;2.58;2.38;;;;;;;;;;6152428;23;20021;-80
2022/02/13 02:59:37;;;;;;;6.45;6.00;;;;;;;;;;6157808;23;20029;-80
2022/02/13 03:02:05;;;;;;;5.57;2.85;;;;;;;;;;6151670;23;20453;-80
2022/02/13 03:04:37;;;;;;;3.65;3.40;;;;;;;;;;6151099;23;20043;-80
2022/02/13 03:07:05;;;;;;;3.45;3.15;;;;;;;;;;6160958;23;20401;-80
2022/02/13 03:09:33;;;;;;;1.90;1.80;;;;;;;;;;6151349;23;20017;-83
2022/02/13 03:12:03;;;;;;;3.25;3.00;;;;;;;;;;6183648;23;20024;-82
2022/02/13 03:14:32;;;;;;;2.78;2.60;;;;;;;;;;6188122;23;20337;-82
2022/02/13 03:17:06;;;;;;;7.40;4.68;;;;;;;;;;6153203;23;20032;-83
2022/02/13 03:19:35;;;;;;;3.40;2.65;;;;;;;;;;6179679;23;20025;-83
2022/02/13 03:22:04;;;;;;;2.72;2.53;;;;;;;;;;6176680;23;20041;-82
2022/02/13 03:24:35;;;;;;;3.58;3.28;;;;;;;;;;6151147;23;20791;-82
2022/02/13 03:27:03;;;;;;;5.88;3.47;;;;;;;;;;6187896;23;20032;-82
2022/02/13 03:29:31;;;;;;;2.25;2.05;;;;;;;;;;6187388;23;20061;-82
2022/02/13 03:32:00;;;;;;;2.72;2.55;;;;;;;;;;6157859;23;20032;-82
2022/02/13 03:34:28;;;;;;;2.85;2.65;;;;;;;;;;6162241;23;20027;-83
2022/02/13 03:36:56;;;;;;;2.28;2.15;;;;;;;;;;6179973;23;20024;-82
2022/02/13 03:39:28;;;;;;;2.90;2.45;;;;;;;;;;6150974;23;20092;-82
2022/02/13 03:41:56;;;;;;;3.17;2.95;;;;;;;;;;6188677;23;20017;-83
2022/02/13 03:44:25;;;;;;;4.88;2.97;;;;;;;;;;6155369;23;20406;-82
2022/02/13 03:46:53;;;;;;;2.67;2.47;;;;;;;;;;6127292;23;20025;-83
2022/02/13 03:49:22;;;;;;;3.38;2.55;;;;;;;;;;6177175;23;20341;-82
2022/02/13 03:51:50;;;;;;;2.53;2.13;;;;;;;;;;6157517;23;20017;-82
2022/02/13 03:54:19;;;;;;;3.13;2.20;;;;;;;;;;6188326;23;20013;-82
2022/02/13 03:56:47;;;;;;;2.33;2.20;;;;;;;;;;6154361;23;20033;-82
2022/02/13 03:59:17;;;;;;;2.42;1.92;;;;;;;;;;6185905;23;20013;-82
2022/02/13 04:01:52;;;;;;;2.55;2.35;;;;;;;;;;6177738;23;20500;-82
2022/02/13 04:04:20;;;;;;;10.13;4.50;;;;;;;;;;6182136;23;20021;-83
2022/02/13 04:06:48;;;;;;;2.70;2.60;;;;;;;;;;6188398;23;20013;-83
2022/02/13 04:09:16;;;;;;;3.78;3.10;;;;;;;;;;6177812;23;20025;-82
2022/02/13 04:11:44;;;;;;;3.53;3.05;;;;;;;;;;6184407;23;20016;-82
2022/02/13 04:14:14;;;;;;;2.88;2.70;;;;;;;;;;6187119;23;20013;-82
2022/02/13 04:16:42;;;;;;;2.38;2.28;;;;;;;;;;6180498;23;20028;-82
2022/02/13 04:19:10;;;;;;;3.92;3.10;;;;;;;;;;6186555;23;20047;-82
2022/02/13 04:21:38;;;;;;;3.35;3.08;;;;;;;;;;6151497;23;20028;-82
2022/02/13 04:24:08;;;;;;;5.05;2.78;;;;;;;;;;6156739;23;20464;-82
2022/02/13 04:26:37;;;;;;;2.08;1.95;;;;;;;;;;6187778;23;20013;-82
2022/02/13 04:29:05;;;;;;;2.17;2.08;;;;;;;;;;6151302;23;20021;-82
2022/02/13 04:31:33;;;;;;;3.13;2.88;;;;;;;;;;6185052;23;20044;-82
2022/02/13 04:34:02;;;;;;;2.95;2.75;;;;;;;;;;6176185;23;20013;-82
2022/02/13 04:36:30;;;;;;;3.88;2.60;;;;;;;;;;6180943;23;20025;-82
2022/02/13 04:38:59;;;;;;;2.65;2.45;;;;;;;;;;6177268;23;20017;-82
2022/02/13 04:41:28;;;;;;;8.45;5.03;;;;;;;;;;6176457;23;20029;-82
2022/02/13 04:43:58;;;;;;;3.40;3.20;;;;;;;;;;6176275;23;20029;-82
2022/02/13 04:46:26;;;;;;;1.95;1.85;;;;;;;;;;6187916;23;20013;-82
2022/02/13 04:48:54;;;;;;;2.95;2.83;;;;;;;;;;6178877;23;20029;-82
2022/02/13 04:51:22;;;;;;;4.70;2.92;;;;;;;;;;6185953;23;20029;-82
2022/02/13 04:53:50;;;;;;;2.80;2.60;;;;;;;;;;6187333;23;20017;-82
2022/02/13 04:56:18;;;;;;;2.53;2.35;;;;;;;;;;6181157;23;20708;-82
2022/02/13 04:58:47;;;;;;;4.45;2.72;;;;;;;;;;6186925;23;20017;-82
2022/02/13 05:01:17;;;;;;;2.33;2.22;;;;;;;;;;6177251;23;20031;-82
2022/02/13 05:03:46;;;;;;;2.20;2.08;;;;;;;;;;6157785;23;20016;-82
2022/02/13 05:06:17;;;;;;;;;;;;;;;;;;6178272;23;20017;-82
2022/02/13 05:08:46;;;;;;;2.28;2.15;;;;;;;;;;6152830;23;19920;-82
2022/02/13 05:11:15;;;;;;;3.05;2.47;;;;;;;;;;6185980;23;20013;-82
2022/02/13 05:13:43;;;;;;;3.40;2.65;;;;;;;;;;6186771;23;20013;-82
2022/02/13 05:16:11;;;;;;;3.45;3.25;;;;;;;;;;6181663;23;20467;-83
2022/02/13 05:18:39;;;;;;;3.75;2.65;;;;;;;;;;6187455;23;20017;-82
2022/02/13 05:21:07;;;;;;;5.28;3.75;;;;;;;;;;6177997;23;20349;-82
2022/02/13 05:23:37;;;;;;;3.72;2.95;;;;;;;;;;6184825;23;20021;-82
2022/02/13 05:26:08;;;;;;;4.20;3.08;;;;;;;;;;6160900;23;20024;-82
2022/02/13 05:28:37;;;;;;;3.10;2.40;;;;;;;;;;6115207;23;20681;-82
2022/02/13 05:31:05;;;;;;;3.15;2.92;;;;;;;;;;6109828;23;20039;-82
2022/02/13 05:33:34;;;;;;;4.78;4.43;;;;;;;;;;6126005;23;20021;-81
2022/02/13 05:36:02;;;;;;;3.28;2.75;;;;;;;;;;6155906;23;20464;-82
2022/02/13 05:38:30;;;;;;;3.22;2.92;;;;;;;;;;6160741;23;20024;-82
2022/02/13 05:40:58;;;;;;;3.30;3.10;;;;;;;;;;6178261;23;20503;-83
2022/02/13 05:43:28;;;;;;;7.70;2.92;;;;;;;;;;6184661;23;20040;-83
2022/02/13 05:45:56;;;;;;;2.47;2.38;;;;;;;;;;6188119;23;20052;-83
2022/02/13 05:48:25;;;;;;;5.10;2.78;;;;;;;;;;6180259;23;21115;-83
2022/02/13 05:50:54;;;;;;;6.35;2.22;;;;;;;;;;6187261;23;20028;-83
2022/02/13 05:53:22;;;;;;;3.40;3.08;;;;;;;;;;6150580;23;20053;-83
2022/02/13 05:55:50;;;;;;;2.60;2.47;;;;;;;;;;6156926;23;20026;-82
2022/02/13 05:58:18;;;;;;;4.00;2.88;;;;;;;;;;6186514;23;20021;-82
2022/02/13 06:00:46;;;;;;;2.50;2.40;;;;;;;;;;6152886;23;20032;-83
2022/02/13 06:03:16;;;;;;;4.07;3.45;;;;;;;;;;6185861;23;20037;-82
2022/02/13 06:05:47;;;;;;;2.80;2.28;;;;;;;;;;6187482;23;20024;-82
2022/02/13 06:08:16;;;;;;;6.10;2.47;;;;;;;;;;6181077;23;20025;-83
2022/02/13 06:10:47;;;;;;;4.07;3.78;;;;;;;;;;6177300;23;20036;-83
2022/02/13 06:13:16;;;;;;;2.95;2.75;;;;;;;;;;6175639;23;20455;-82
2022/02/13 06:15:44;;;;;;;2.20;2.05;;;;;;;;;;6183542;23;20021;-83
2022/02/13 06:18:12;;;;;;;2.67;2.47;;;;;;;;;;6160430;23;20012;-82
2022/02/13 06:20:41;;;;;;;2.65;2.40;;;;;;;;;;6179317;23;20021;-83
2022/02/13 06:23:10;;;;;;;3.03;2.83;;;;;;;;;;6159466;23;20017;-82
2022/02/13 06:25:38;;;;;;;3.22;3.03;;;;;;;;;;6186563;23;20021;-82
2022/02/13 06:28:07;;;;;;;3.35;3.15;;;;;;;;;;6181376;23;20062;-82
2022/02/13 06:30:35;;;;;;;8.50;2.95;;;;;;;;;;6188580;23;20039;-82
2022/02/13 06:33:03;;;;;;;3.00;2.80;;;;;;;;;;6180050;23;20036;-82
2022/02/13 06:35:32;;;;;;;3.53;2.78;;;;;;;;;;6186186;23;20037;-82
2022/02/13 06:38:01;;;;;;;2.75;2.50;;;;;;;;;;6152784;23;20586;-82
2022/02/13 06:40:31;;;;;;;10.43;2.30;;;;;;;;;;6182275;23;20029;-82
2022/02/13 06:42:59;;;;;;;3.45;2.63;;;;;;;;;;6188949;23;20025;-83
2022/02/13 06:45:27;;;;;;;1.98;1.88;;;;;;;;;;6126162;23;20052;-83
2022/02/13 06:47:55;;;;;;;2.30;2.10;;;;;;;;;;6151852;23;20028;-83
2022/02/13 06:50:24;;;;;;;2.15;2.05;;;;;;;;;;6127304;23;20472;-83
2022/02/13 06:52:53;;;;;;;1.88;1.77;;;;;;;;;;6153927;23;20021;-83
2022/02/13 06:55:22;;;;;;;2.72;2.33;;;;;;;;;;6186523;23;22533;-83
2022/02/13 06:57:50;;;;;;;2.22;2.03;;;;;;;;;;6188251;23;20021;-83
2022/02/13 07:00:20;;;;;;;5.78;2.50;;;;;;;;;;6182376;23;20029;-83
2022/02/13 07:02:52;;;;;;;3.15;2.95;;;;;;;;;;6179393;23;20028;-83
2022/02/13 07:05:23;;;;;;;3.67;3.33;;;;;;;;;;6178773;23;20025;-84
2022/02/13 07:07:51;;;;;;;2.30;2.20;;;;;;;;;;6158560;23;20025;-83
2022/02/13 07:10:19;;;;;;;2.08;1.95;;;;;;;;;;6162537;23;20260;-83
2022/02/13 07:12:47;;;;;;;5.32;2.55;;;;;;;;;;6181421;23;20021;-83
2022/02/13 07:15:16;;;;;;;4.30;3.92;;;;;;;;;;6186471;23;20013;-83
2022/02/13 07:17:44;;;;;;;3.08;1.80;;;;;;;;;;6188006;23;20017;-83
2022/02/13 07:20:13;;;;;;;6.82;4.20;;;;;;;;;;6182641;23;20029;-83
2022/02/13 07:22:41;;;;;;;1.70;1.60;;;;;;;;;;6188507;23;20027;-83
2022/02/13 07:25:10;;;;;;;2.10;2.00;;;;;;;;;;6178616;23;20461;-83
2022/02/13 07:27:39;;;;;;;3.22;2.45;;;;;;;;;;6176644;23;20028;-83
2022/02/13 07:30:13;;;;;;;2.28;2.17;;;;;;;;;;6187185;23;20322;-83
2022/02/13 07:32:41;;;;;;;;;;;;;;;;;;6154990;23;20029;-83
2022/02/13 07:35:15;;;;;;;2.30;2.20;;;;;;;;;;6186633;23;19927;-84
2022/02/13 07:37:43;;;;;;;2.80;2.33;;;;;;;;;;6161362;23;20013;-83
2022/02/13 07:40:12;;;;;;;2.42;2.33;;;;;;;;;;6126065;23;20484;-83
2022/02/13 07:42:43;;;;;;;2.53;2.33;;;;;;;;;;6188128;23;20013;-84
2022/02/13 07:45:13;;;;;;;2.50;2.40;;;;;;;;;;6152031;23;20040;-84
2022/02/13 07:47:41;;;;;;;3.78;3.45;;;;;;;;;;6184754;23;20028;-84
2022/02/13 07:50:09;;;;;;;3.38;2.38;;;;;;;;;;6179468;23;20032;-84
2022/02/13 07:52:37;;;;;;;2.25;2.15;;;;;;;;;;6150835;23;20056;-83
2022/02/13 07:55:06;;;;;;;2.55;2.35;;;;;;;;;;6186889;23;20017;-83
2022/02/13 07:57:34;;;;;;;3.03;2.72;;;;;;;;;;6150349;23;20017;-83
2022/02/13 08:00:02;;;;;;;2.60;2.45;;;;;;;;;;6152917;23;20348;-83
2022/02/13 08:02:40;;;;;;;2.00;1.90;;;;;;;;;;6178210;23;20436;-83
2022/02/13 08:05:09;;;;;;;4.05;2.83;;;;;;;;;;6150463;23;20025;-83
2022/02/13 08:07:44;;;;;;;2.15;2.05;;;;;;;;;;6116766;23;20026;-83
2022/02/13 08:10:15;;;;;;;2.85;2.53;;;;;;;;;;6161390;23;20024;-83
2022/02/13 08:12:43;;;;;;;2.38;2.17;;;;;;;;;;6180542;23;20067;-83
2022/02/13 08:15:13;;;;;;;5.38;1.95;;;;;;;;;;6184411;23;20013;-83
2022/02/13 08:17:48;;;;;;;2.55;2.45;;;;;;;;;;6187162;23;20023;-83
2022/02/13 08:20:16;;;;;;;2.60;2.25;;;;;;;;;;6181523;23;20036;-82
2022/02/13 08:22:44;;;;;;;2.80;2.08;;;;;;;;;;6187726;23;20020;-82
2022/02/13 08:25:12;;;;;;;3.90;2.30;;;;;;;;;;6177416;23;20029;-82
2022/02/13 08:27:41;;;;;;;2.80;2.05;;;;;;;;;;6183956;23;20025;-82
2022/02/13 08:30:09;;;;;;;2.45;2.25;;;;;;;;;;6160412;23;20456;-83
2022/02/13 08:32:37;;;;;;;1.88;1.77;;;;;;;;;;6180372;23;20029;-82
2022/02/13 08:35:06;;;;;;;6.93;4.53;;;;;;;;;;6185713;23;20021;-81
2022/02/13 08:37:34;;;;;;;3.40;2.20;;;;;;;;;;6161084;23;20579;-82
2022/02/13 08:40:02;;;;;;;2.22;2.03;;;;;;;;;;6182646;23;20032;-82
2022/02/13 08:42:31;;;;;;;2.58;2.30;;;;;;;;;;6176737;23;20348;-82
2022/02/13 08:44:59;;;;;;;3.83;3.13;;;;;;;;;;6177743;23;20072;-82
2022/02/13 08:47:30;;;;;;;1.88;1.60;;;;;;;;;;6184422;23;20077;-82
2022/02/13 08:49:58;;;;;;;2.90;2.30;;;;;;;;;;6179123;23;20036;-82
2022/02/13 08:52:26;;;;;;;5.00;2.13;;;;;;;;;;6180495;23;20376;-82
2022/02/13 08:54:54;;;;;;;2.00;1.75;;;;;;;;;;6160108;23;20024;-82
2022/02/13 08:57:23;;;;;;;2.22;2.05;;;;;;;;;;6176737;23;20025;-83
2022/02/13 08:59:51;;;;;;;3.05;2.45;;;;;;;;;;6182223;23;20345;-83
2022/02/13 09:02:19;;;;;;;2.45;2.10;;;;;;;;;;6161273;23;20013;-83
2022/02/13 09:04:47;;;;;;;1.95;1.85;;;;;;;;;;6179827;23;20025;-83
2022/02/13 09:07:17;;;;;;;4.00;1.73;;;;;;;;;;6158718;23;20013;-83
2022/02/13 09:09:47;;;;;;;4.30;2.55;;;;;;;;;;6186530;23;20024;-80
2022/02/13 09:12:19;;;;;;;1.83;1.70;;;;;;;;;;6181202;23;20033;-80
2022/02/13 09:14:47;;;;;;;2.33;2.13;;;;;;;;;;6186397;23;20013;-80
2022/02/13 09:17:17;;;;;;;3.13;2.92;;;;;;;;;;6111924;23;20030;-80
2022/02/13 09:19:46;;;;;;;2.20;1.75;;;;;;;;;;6180458;23;20033;-80
2022/02/13 09:22:14;;;;;;;2.03;1.67;;;;;;;;;;6187111;23;20024;-81
2022/02/13 09:24:44;;;;;;;7.15;2.60;;;;;;;;;;6176690;23;20483;-81
2022/02/13 09:27:15;;;;;;;1.63;1.55;;;;;;;;;;6185617;23;20017;-81
2022/02/13 09:29:46;;;;;;;2.30;1.98;;;;;;;;;;6176978;23;20017;-85
2022/02/13 09:32:15;;;;;;;2.80;2.65;;;;;;;;;;6155347;23;20692;-80
2022/02/13 09:34:43;;;;;;;2.33;2.22;;;;;;;;;;6161047;23;20017;-81
2022/02/13 09:37:11;;;;;;;3.08;2.40;;;;;;;;;;6177859;23;20397;-82
2022/02/13 09:39:45;;;;;;;2.65;2.20;;;;;;;;;;6150677;23;20021;-79
2022/02/13 09:42:13;;;;;;;1.63;1.48;;;;;;;;;;6186561;23;20028;-81
2022/02/13 09:44:41;;;;;;;2.17;1.95;;;;;;;;;;6179179;23;20040;-82
2022/02/13 09:47:10;;;;;;;3.10;2.20;;;;;;;;;;6159446;23;20051;-82
2022/02/13 09:49:38;;;;;;;5.70;2.45;;;;;;;;;;6180063;23;20590;-83
2022/02/13 09:52:09;;;;;;;1.73;1.63;;;;;;;;;;6181820;23;20072;-80
2022/02/13 09:54:41;;;;;;;2.22;2.00;;;;;;;;;;6186919;23;20024;-81
2022/02/13 09:59:59;;;;;;;2.47;2.28;;;;;;;;;;6175515;23;20080;-83
2022/02/13 10:02:32;;;;;;;2.67;2.47;;;;;;;;;;6187317;23;20017;-83
2022/02/13 10:05:05;;;;;;;2.60;2.33;;;;;;;;;;6180268;23;20029;-82
2022/02/13 10:07:34;;;;;;;2.75;1.80;;;;;;;;;;6186451;23;20021;-84
2022/02/13 10:10:04;;;;;;;6.75;1.40;;;;;;;;;;6188494;23;20020;-83
2022/02/13 10:12:42;;;;;;;2.33;1.45;;;;;;;;;;6181959;23;20029;-81
2022/02/13 10:15:31;;;;;;;2.25;1.52;;;;;;;;;;6186347;23;20024;-82
2022/02/13 10:17:59;;;;;;;1.98;1.73;;;;;;;;;;6188195;23;20013;-81
2022/02/13 10:20:27;;;;;;;2.33;2.13;;;;;;;;;;6182430;23;20013;-82
2022/02/13 10:22:56;;;;;;;1.60;1.48;;;;;;;;;;6190814;23;20372;-81
2022/02/13 10:25:24;;;;;;;1.42;1.33;;;;;;;;;;6178436;23;20032;-81
2022/02/13 10:27:52;;;;;;;1.80;1.70;;;;;;;;;;6160439;23;20017;-85
2022/02/13 10:30:34;;;;;;;2.20;1.88;;;;;;;;;;6117691;23;20032;-86
2022/02/13 10:33:02;;;;;;;;;;;;;;;;;;6141135;23;20024;-81
2022/02/13 10:35:31;;;;;;;1.73;1.50;;;;;;;;;;6185537;23;19920;-85
2022/02/13 10:38:00;;;;;;;4.13;2.15;;;;;;;;;;6162543;23;20452;-82
2022/02/13 10:40:32;;;;;;;4.95;1.75;;;;;;;;;;6182442;23;20032;-85
2022/02/13 10:43:09;;;;;;;1.75;1.65;;;;;;;;;;6161413;23;20028;-81
2022/02/13 10:45:38;;;;;;;1.73;1.63;;;;;;;;;;6188823;23;20506;-81
2022/02/13 10:48:07;;;;;;;1.85;1.75;;;;;;;;;;6183079;23;20028;-83
2022/02/13 10:50:37;;;;;;;5.45;2.75;;;;;;;;;;6188464;23;20013;-81
2022/02/13 10:53:06;;;;;;;3.30;3.10;;;;;;;;;;6179707;23;20036;-82
2022/02/13 10:55:44;;;;;;;1.38;1.38;;;;;;;;;;6186014;23;20032;-82
2022/02/13 10:58:13;;;;;;;1.20;1.20;;;;;;;;;;6189080;23;20035;-84
2022/02/13 11:00:44;;;;;;;1.77;1.67;;;;;;;;;;6151399;23;20037;-84
2022/02/13 11:03:23;;;;;;;1.25;1.23;;;;;;;;;;6148915;23;20454;-86
2022/02/13 11:05:54;;;;;;;2.97;1.98;;;;;;;;;;6127378;23;20661;-84
2022/02/13 11:08:24;;;;;;;1.23;1.13;;;;;;;;;;6181898;23;20077;-84
2022/02/13 11:10:53;;;;;;;0.95;0.95;;;;;;;;;;6188568;23;20017;-84
2022/02/13 11:13:25;;;;;;;1.63;1.52;;;;;;;;;;6150366;23;20124;-83
2022/02/13 11:15:54;;;;;;;1.23;1.23;;;;;;;;;;6184082;23;20025;-84
2022/02/13 11:18:25;;;;;;;2.08;1.88;;;;;;;;;;6146800;23;20345;-83
2022/02/13 11:20:55;;;;;;;1.30;1.20;;;;;;;;;;6178734;23;20029;-83
2022/02/13 11:23:27;;;;;;;1.98;1.20;;;;;;;;;;6186387;23;20032;-83
2022/02/13 11:26:05;;;;;;;1.50;1.40;;;;;;;;;;6187555;23;20017;-83
2022/02/13 11:28:42;;;;;;;1.38;1.27;;;;;;;;;;6149301;23;20029;-84
2022/02/13 11:31:33;;;;;;;1.48;1.38;;;;;;;;;;6125644;23;20017;-83
2022/02/13 11:34:03;;;;;;;2.05;1.60;;;;;;;;;;6188237;23;20012;-84
2022/02/13 11:36:41;;;;;;;1.55;1.00;;;;;;;;;;6181440;23;20849;-84
2022/02/13 11:39:10;;;;;;;1.70;1.60;;;;;;;;;;6153981;23;20024;-83
2022/02/13 11:41:47;;;;;;;1.15;1.05;;;;;;;;;;6187731;23;20017;-83
2022/02/13 11:44:35;;;;;;;1.00;1.00;;;;;;;;;;6181576;23;20033;-83
2022/02/13 11:47:07;;;;;;;3.10;1.67;;;;;;;;;;6175307;23;20013;-84
2022/02/13 11:49:54;;;;;;;3.13;1.65;;;;;;;;;;6177896;23;20028;-84
2022/02/13 11:52:27;;;;;;;1.25;1.17;;;;;;;;;;6150503;23;20596;-85
2022/02/13 11:54:55;;;;;;;1.17;1.15;;;;;;;;;;6125759;23;20043;-85
2022/02/13 11:57:28;;;;;;;1.27;1.13;;;;;;;;;;6114178;23;20032;-85
2022/02/13 11:59:57;;;;;;;2.67;1.30;;;;;;;;;;6181535;23;20029;-85
2022/02/13 12:02:32;;;;;;;1.70;1.60;;;;;;;;;;6126515;23;20353;-84
2022/02/13 12:05:06;;;;;;;1.40;1.30;;;;;;;;;;6179229;23;20423;-79
2022/02/13 12:07:35;;;;;;;2.05;1.90;;;;;;;;;;6125815;23;20025;-79
2022/02/13 12:10:03;;;;;;;15.40;7.25;;;;;;;;;;6161145;23;20036;-79
2022/02/13 12:12:32;;;;;;;2.40;1.65;;;;;;;;;;6180813;23;20025;-79
2022/02/13 12:15:00;;;;;;;1.48;1.45;;;;;;;;;;6186688;23;20037;-79
2022/02/13 12:17:28;;;;;;;1.60;1.13;;;;;;;;;;6176591;23;20025;-79
2022/02/13 12:20:05;;;;;;;2.28;1.20;;;;;;;;;;6182598;23;20029;-79
2022/02/13 12:22:36;;;;;;;2.05;1.30;;;;;;;;;;6187465;23;20013;-79
2022/02/13 12:25:04;;;;;;;;;;;;;;;;;;6138822;23;20057;-86
2022/02/13 12:27:33;;;;;;;1.60;1.42;;;;;;;;;;6158325;23;19928;-86
2022/02/13 12:30:03;;;;;;;1.48;1.17;;;;;;;;;;6125904;23;20017;-85
2022/02/13 12:32:34;;;;;;;1.97;1.80;;;;;;;;;;6125401;23;20036;-85
2022/02/13 12:35:13;;;;;;;1.88;1.73;;;;;;;;;;6150407;23;20036;-85
2022/02/13 12:37:43;;;;;;;3.55;2.13;;;;;;;;;;6150365;23;20044;-85
2022/02/13 12:40:22;;;;;;;4.03;1.70;;;;;;;;;;6155850;23;20036;-85
2022/02/13 12:42:52;;;;;;;1.30;1.20;;;;;;;;;;6187211;23;20017;-86
2022/02/13 12:45:26;;;;;;;1.60;1.50;;;;;;;;;;6176444;23;20036;-84
2022/02/13 12:47:58;;;;;;;3.00;1.98;;;;;;;;;;6184107;23;20032;-84
2022/02/13 12:50:30;;;;;;;1.40;1.30;;;;;;;;;;6177185;23;20074;-85
2022/02/13 12:53:03;;;;;;;1.38;1.27;;;;;;;;;;6152988;23;20036;-85
2022/02/13 12:55:31;;;;;;;1.33;1.23;;;;;;;;;;6183138;23;20021;-85
2022/02/13 12:58:01;;;;;;;2.50;1.92;;;;;;;;;;6160932;23;20021;-84
2022/02/13 13:00:31;;;;;;;;;;;;;;;;;;6150143;23;20037;-84
2022/02/13 13:02:59;;;;;;;1.45;1.45;;;;;;;;;;6151302;23;20363;-85
2022/02/13 13:05:33;;;;;;;1.67;1.58;;;;;;;;;;6149910;23;20365;-84
2022/02/13 13:08:08;;;;;;;4.70;1.58;;;;;;;;;;6125175;23;20051;-85
2022/02/13 13:10:36;;;;;;;2.10;1.92;;;;;;;;;;6116749;23;20021;-85
2022/02/13 13:13:08;;;;;;;3.60;2.00;;;;;;;;;;6149877;23;20064;-85
2022/02/13 13:15:38;;;;;;;2.95;2.47;;;;;;;;;;6176580;23;20028;-85
2022/02/13 13:18:09;;;;;;;3.95;2.17;;;;;;;;;;6159968;23;20020;-84
2022/02/13 13:20:39;;;;;;;1.90;1.80;;;;;;;;;;6180371;23;20025;-84
2022/02/13 13:23:12;;;;;;;2.00;1.83;;;;;;;;;;6126402;23;20021;-85
2022/02/13 13:25:44;;;;;;;5.70;2.92;;;;;;;;;;6150851;23;20025;-85
2022/02/13 13:28:16;;;;;;;1.73;1.52;;;;;;;;;;6181330;23;20039;-85
2022/02/13 13:30:45;;;;;;;1.40;1.30;;;;;;;;;;6186610;23;20017;-84
2022/02/13 13:33:13;;;;;;;2.05;1.63;;;;;;;;;;6150122;23;20040;-83
2022/02/13 13:35:42;;;;;;;1.45;1.35;;;;;;;;;;6184118;23;20029;-83
2022/02/13 13:38:11;;;;;;;12.00;3.85;;;;;;;;;;6151784;23;20025;-83
2022/02/13 13:40:42;;;;;;;1.92;1.83;;;;;;;;;;6182120;23;20021;-84
2022/02/13 13:43:11;;;;;;;3.03;2.00;;;;;;;;;;6187704;23;20013;-84
2022/02/13 13:45:42;;;;;;;2.83;2.08;;;;;;;;;;6188939;23;20017;-83
2022/02/13 13:48:18;;;;;;;2.63;1.90;;;;;;;;;;6152385;23;20025;-84
2022/02/13 13:50:47;;;;;;;3.25;2.95;;;;;;;;;;6128018;23;20030;-83
2022/02/13 13:53:16;;;;;;;2.88;2.42;;;;;;;;;;6179307;23;20021;-83
2022/02/13 13:55:46;;;;;;;3.03;1.80;;;;;;;;;;6151389;23;20017;-84
2022/02/13 13:58:17;;;;;;;3.28;1.40;;;;;;;;;;6127537;23;20021;-84
2022/02/13 14:00:46;;;;;;;1.85;1.25;;;;;;;;;;6154510;23;20032;-84
2022/02/13 14:03:17;;;;;;;2.00;1.90;;;;;;;;;;6152292;23;20020;-84
2022/02/13 14:05:46;;;;;;;2.03;1.83;;;;;;;;;;6189265;23;20017;-84
2022/02/13 14:08:15;;;;;;;4.07;3.03;;;;;;;;;;6156457;23;20028;-84
2022/02/13 14:10:51;;;;;;;1.38;1.27;;;;;;;;;;6178950;23;20021;-84
2022/02/13 14:13:20;;;;;;;8.95;1.23;;;;;;;;;;6176814;23;20085;-84
2022/02/13 14:15:52;;;;;;;3.38;1.45;;;;;;;;;;6152663;23;20475;-85
2022/02/13 14:18:20;;;;;;;5.50;1.70;;;;;;;;;;6162229;23;20511;-84
2022/02/13 14:20:49;;;;;;;2.97;2.78;;;;;;;;;;6151698;23;20032;-84
2022/02/13 14:23:17;;;;;;;1.55;1.42;;;;;;;;;;6160774;23;20445;-84
2022/02/13 14:25:50;;;;;;;1.63;1.27;;;;;;;;;;6128941;23;20021;-85
2022/02/13 14:28:19;;;;;;;3.78;1.55;;;;;;;;;;6150764;23;20028;-85
2022/02/13 14:30:51;;;;;;;1.42;1.33;;;;;;;;;;6162045;23;20017;-84
2022/02/13 14:33:25;;;;;;;1.98;1.60;;;;;;;;;;6127028;23;20021;-84
2022/02/13 14:35:55;;;;;;;4.43;2.97;;;;;;;;;;6184355;23;20020;-85
2022/02/13 14:38:24;;;;;;;2.33;2.10;;;;;;;;;;6188676;23;20340;-84
2022/02/13 14:40:53;;;;;;;1.95;1.55;;;;;;;;;;6155480;23;20057;-83
2022/02/13 14:43:25;;;;;;;2.00;1.88;;;;;;;;;;6126523;23;20640;-85
2022/02/13 14:45:53;;;;;;;2.90;1.67;;;;;;;;;;6162242;23;20021;-85
2022/02/13 14:48:24;;;;;;;4.88;1.52;;;;;;;;;;6126227;23;20528;-85
2022/02/13 14:50:53;;;;;;;1.08;1.08;;;;;;;;;;6127636;23;20017;-85
2022/02/13 14:53:22;;;;;;;1.92;1.63;;;;;;;;;;6152303;23;20833;-85
2022/02/13 14:55:51;;;;;;;2.15;1.95;;;;;;;;;;6184608;23;20013;-85
2022/02/13 14:58:22;;;;;;;3.25;1.67;;;;;;;;;;6125998;23;20021;-85
2022/02/13 15:00:52;;;;;;;3.83;2.40;;;;;;;;;;6153691;23;20427;-84
2022/02/13 15:03:20;;;;;;;3.15;2.08;;;;;;;;;;6160371;23;20020;-84